Time;durP1;ratioP1;P1;durP2;ratioP2;P2;SDS_P1;SDS_P2;PMS_P1;PMS_P2;Temp;Humidity;BMP_temperature;BMP_pressure;BME280_temperature;BME280_humidity;BME280_pressure;Samples;Min_cycle;Max_cycle;Signal;HPM_P1;HPM_P2
2022/04/19 07:51:51;;;;;;;13.57;7.35;;;;;;;18.73;47.17;101241.06;352084;27;20395;-83
2022/04/19 07:52:04;;;;;;;15.90;8.60;;;;;;;18.72;45.88;101243.81;350193;28;1164;-83
2022/04/19 07:52:15;;;;;;;16.60;9.10;;;;;;;18.69;44.93;101236.94;349157;28;1781;-81
2022/04/19 07:52:25;;;;;;;17.33;9.38;;;;;;;18.68;44.98;101240.53;249425;28;2675604;-81
2022/04/19 07:52:36;;;;;;;16.60;9.40;;;;;;;18.67;44.45;101241.47;342213;28;1360;-81
2022/04/19 07:53:05;;;;;;;16.80;9.40;;;20.30;52.20;;;18.64;44.41;101239.91;352681;27;20361;-81
2022/04/19 07:53:16;;;;;;;15.23;9.73;;;20.30;42.20;;;18.64;44.51;101236.41;318116;28;12860;-78
2022/04/19 07:53:27;;;;;;;16.30;9.80;;;20.30;42.10;;;18.62;44.38;101243.63;346176;28;737;-80
2022/04/19 07:53:38;;;;;;;16.05;9.70;;;20.30;41.90;;;18.61;43.98;101241.94;327802;28;10592;-80
2022/04/19 07:53:49;;;;;;;15.13;9.40;;;20.30;41.90;;;18.59;44.37;101246.47;327168;28;5534;-83
2022/04/19 07:54:00;;;;;;;15.10;9.68;;;20.30;41.70;;;18.58;44.16;101237.69;342089;28;5829;-80
2022/04/19 07:54:11;;;;;;;15.85;10.13;;;20.30;41.60;;;18.57;44.06;101238.66;342587;28;6205;-82
2022/04/19 07:54:30;;;;;;;16.38;10.02;;;20.30;41.40;;;18.56;44.01;101246.69;344056;28;5555;-84
2022/04/19 07:54:42;;;;;;;16.17;9.35;;;20.30;41.40;;;18.55;44.00;101245.00;334190;28;5841;-79
2022/04/19 07:54:59;;;;;;;15.32;9.43;;;20.40;41.40;;;18.57;47.34;101251.03;337524;28;5834;-88
2022/04/19 07:56:02;;;;;;;16.13;9.55;;;20.40;46.50;;;18.58;45.41;101242.97;334056;28;5799;-88
2022/04/19 07:56:28;;;;;;;13.63;9.40;;;20.50;42.40;;;18.59;44.52;101238.53;323193;28;6463;-86
2022/04/19 07:59:21;;;;;;;15.55;9.10;;;20.70;41.10;;;18.59;43.51;101247.31;304765;29;6035;-92
2022/04/19 07:59:35;;;;;;;28.20;9.63;;;21.00;39.80;;;18.61;46.14;101241.94;321698;29;6549;-88
2022/04/19 07:59:47;;;;;;;31.95;9.73;;;21.10;41.10;;;18.61;45.08;101242.75;333907;29;5744;-83
2022/04/19 07:59:57;;;;;;;29.20;9.57;;;21.10;40.60;;;18.62;43.85;101238.31;332832;29;6608;-82
2022/04/19 08:00:13;;;;;;;15.32;8.65;;;21.10;39.70;;;18.61;43.52;101242.75;332301;29;5695;-84
2022/04/19 08:00:27;;;;;;;12.23;8.30;;;21.20;39.50;;;18.61;43.63;101245.41;338723;28;6572;-83
2022/04/19 08:00:38;;;;;;;13.32;8.75;;;21.20;39.20;;;18.62;43.58;101243.63;339369;28;6257;-81
2022/04/19 08:00:49;;;;;;;14.27;9.00;;;21.30;39.00;;;18.62;43.46;101238.31;328615;28;6257;-84
2022/04/19 08:01:00;;;;;;;15.20;9.02;;;21.30;38.90;;;18.61;43.46;101242.75;339213;28;5290;-82
2022/04/19 08:01:11;;;;;;;14.75;8.80;;;21.30;38.70;;;18.62;43.29;101248.91;324078;28;5957;-81
2022/04/19 08:01:23;;;;;;;13.40;8.70;;;21.30;38.70;;;18.61;43.42;101239.28;336862;28;5789;-84
2022/04/19 08:01:47;;;;;;;;;;;;;;;;;;;;;
2022/04/19 08:02:57;;;;;;;13.45;8.40;;;21.50;38.50;;;18.58;43.55;101242.97;310016;28;5835;-89
2022/04/19 08:03:08;;;;;;;14.75;8.60;;;21.70;38.10;;;18.58;43.29;101242.16;331897;28;5678;-86
2022/04/19 08:03:19;;;;;;;14.27;8.52;;;21.70;38.00;;;18.58;43.02;101250.91;333158;28;6037;-85
2022/04/19 08:03:35;;;;;;;13.30;8.65;;;21.70;37.90;;;18.57;43.20;101248.38;336908;28;5415;-83
2022/04/19 08:03:46;;;;;;;13.68;8.68;;;21.70;37.80;;;18.57;43.40;101251.03;327424;28;6410;-84
2022/04/19 08:03:57;;;;;;;13.53;8.60;;;21.80;37.70;;;18.56;43.15;101251.97;330667;28;6080;-84
2022/04/19 08:04:17;;;;;;;12.57;8.23;;;21.80;37.60;;;18.56;43.34;101251.97;340548;28;7198;-82
2022/04/19 08:04:42;;;;;;;13.55;8.40;;;21.80;37.60;;;18.59;48.85;101246.47;303776;28;6197;-87
2022/04/19 08:05:01;;;;;;;16.52;8.27;;;21.80;37.50;;;18.70;45.02;101240.41;337082;28;6538;-85
2022/04/19 09:02:23;;;;;;;11.95;5.60;;;24.50;31.00;;;19.89;37.24;101244.19;352866;27;20181;-78
2022/04/19 09:02:37;;;;;;;10.88;6.40;;;24.50;30.70;;;19.89;36.92;101238.03;349277;28;824;-81
2022/04/19 09:02:53;;;;;;;9.95;6.60;;;24.50;30.00;;;19.90;36.55;101240.56;346506;28;922;-78
2022/04/19 09:03:06;;;;;;;9.90;6.43;;;24.60;29.90;;;19.96;35.79;101241.91;346235;28;1586;-81
2022/04/19 09:03:20;;;;;;;9.38;6.60;;;24.50;29.20;;;19.95;35.30;101237.56;345190;28;819;-80
2022/04/19 09:03:31;;;;;;;8.57;6.85;;;24.50;28.90;;;19.93;34.41;101239.47;345937;28;1311;-77
2022/04/19 09:03:42;;;;;;;9.68;6.63;;;24.60;28.60;;;19.90;33.91;101239.69;346493;28;875;-76
2022/04/19 09:03:53;;;;;;;9.48;6.45;;;24.50;28.20;;;19.86;33.80;101238.25;346476;28;1319;-77
2022/04/19 09:04:04;;;;;;;11.05;6.72;;;24.50;27.90;;;19.82;34.22;101243.78;346558;28;915;-77
2022/04/19 09:04:25;;;;;;;10.95;6.90;;;24.50;28.10;;;19.81;34.50;101242.09;347755;28;1540;-78
2022/04/19 09:04:48;;;;;;;10.02;6.88;;;24.50;28.20;;;19.77;34.39;101240.63;346355;28;883;-76
2022/04/19 09:05:25;;;;;;;9.20;7.00;;;24.50;28.10;;;19.83;34.25;101241.97;346327;28;764;-80
2022/04/19 09:05:53;;;;;;;8.65;6.40;;;24.50;28.10;;;19.80;34.76;101245.72;346263;28;1705;-81
2022/04/19 09:06:04;;;;;;;8.85;6.65;;;24.50;28.30;;;19.81;34.81;101236.78;347809;28;1478;-81
2022/04/19 09:06:16;;;;;;;9.60;6.65;;;24.50;28.50;;;19.86;35.32;101238.25;346195;28;1563;-81
2022/04/19 09:06:55;;;;;;;9.90;6.60;;;24.60;28.70;;;19.94;35.48;101236.72;346542;28;878;-80
2022/04/19 09:07:08;;;;;;;8.45;6.32;;;24.60;28.90;;;19.98;35.43;101234.66;308271;28;10467;-79
2022/04/19 09:07:36;;;;;;;8.75;6.50;;;24.60;29.20;;;20.01;35.57;101242.41;319516;28;12801;-78
2022/04/19 09:07:50;;;;;;;8.65;6.80;;;24.70;29.10;;;20.05;36.01;101235.91;342518;28;1393;-80
2022/04/19 09:08:00;;;;;;;10.35;6.80;;;24.70;29.20;;;20.13;35.61;101237.13;315489;28;11941;-78
2022/04/19 09:08:13;;;;;;;11.10;6.90;;;24.80;29.30;;;20.18;35.49;101246.41;342830;28;5967;-79
2022/04/19 09:08:24;;;;;;;10.88;6.97;;;24.80;29.10;;;20.19;35.51;101240.16;341921;28;5221;-79
2022/04/19 09:08:35;;;;;;;8.50;6.73;;;24.80;29.00;;;20.24;35.45;101234.50;342221;28;5595;-78
2022/04/19 09:09:11;;;;;;;7.78;6.40;;;24.80;29.10;;;20.37;35.46;101237.03;342178;28;5665;-78
2022/04/19 09:09:28;;;;;;;9.43;6.75;;;25.00;29.00;;;20.38;34.74;101233.41;343245;28;6241;-75
2022/04/19 09:09:38;;;;;;;8.02;6.63;;;25.00;28.50;;;20.38;34.78;101232.56;345199;28;5722;-80
2022/04/19 09:10:01;;;;;;;8.00;6.37;;;25.10;28.50;;;20.45;34.45;101236.44;346552;28;5759;-77
2022/04/19 09:10:16;;;;;;;8.65;6.22;;;25.20;28.40;;;20.51;34.43;101241.25;334162;28;5683;-79
2022/04/19 09:10:30;;;;;;;9.00;6.32;;;25.20;28.30;;;20.57;34.36;101235.44;344419;28;5956;-83
2022/04/19 09:10:41;;;;;;;8.57;6.57;;;25.30;28.20;;;20.62;34.05;101239.53;342528;28;5736;-79
2022/04/19 09:11:08;;;;;;;8.45;6.60;;;25.40;28.00;;;20.65;34.06;101234.00;342116;28;5692;-77
2022/04/19 09:11:33;;;;;;;9.25;6.68;;;25.50;27.80;;;20.66;33.53;101227.75;340129;28;6992;-84
2022/04/19 09:11:43;;;;;;;10.02;6.63;;;25.50;27.40;;;20.65;33.38;101228.69;340533;28;5915;-78
2022/04/19 09:12:12;;;;;;;18.37;6.87;;;25.60;27.10;;;20.61;33.86;101228.13;342033;28;5163;-79
2022/04/19 09:12:23;;;;;;;10.25;6.60;;;25.60;27.10;;;20.64;34.33;101229.69;340396;28;5729;-75
2022/04/19 09:12:34;;;;;;;10.48;6.72;;;25.80;27.60;;;20.69;34.61;101232.78;344434;28;6061;-78
2022/04/19 09:13:10;;;;;;;10.07;6.68;;;25.80;27.80;;;20.87;33.39;101230.47;345471;28;5847;-82
2022/04/19 09:13:21;;;;;;;9.15;7.15;;;25.90;27.90;;;20.88;33.19;101223.38;341740;28;5773;-80
2022/04/19 09:13:32;;;;;;;8.60;6.95;;;25.90;26.80;;;20.86;32.99;101225.31;345700;28;5127;-78
2022/04/19 09:13:45;;;;;;;8.73;6.93;;;26.00;26.60;;;20.80;33.20;101230.13;347779;28;807;-76
2022/04/19 09:14:08;;;;;;;9.90;7.00;;;26.00;26.80;;;20.79;33.09;101224.94;346614;28;827;-75
2022/04/19 09:14:25;;;;;;;8.82;7.10;;;26.10;26.50;;;20.78;33.12;101232.09;344548;28;6489;-81
2022/04/19 09:15:03;;;;;;;;;;;;;;;;;;;;;
2022/04/19 09:15:22;;;;;;;8.07;6.85;;;26.20;26.60;;;20.71;33.63;101225.56;345249;28;5344;-83
2022/04/19 09:15:42;;;;;;;9.82;7.05;;;26.30;26.40;;;20.74;33.36;101222.69;345065;28;1272;-81
2022/04/19 09:15:54;;;;;;;10.98;7.05;;;26.30;26.30;;;20.74;33.74;101228.00;347990;28;879;-80
2022/04/19 09:16:13;;;;;;;9.55;6.80;;;26.40;26.50;;;20.79;33.39;101228.44;346537;28;1343;-83
2022/04/19 09:16:24;;;;;;;10.13;7.10;;;26.50;26.50;;;20.86;33.37;101228.78;318319;28;7454;-81
2022/04/19 09:16:35;;;;;;;10.45;7.15;;;26.50;26.30;;;20.88;33.27;101231.31;345386;28;843;-78
2022/04/19 09:16:46;;;;;;;10.30;6.97;;;26.60;26.20;;;20.90;33.46;101234.75;346556;28;1288;-81
2022/04/19 09:17:12;;;;;;;8.85;6.78;;;26.60;26.20;;;20.87;33.27;101227.81;346325;28;5594;-80
2022/04/19 09:17:50;;;;;;;10.13;7.47;;;26.70;26.00;;;20.84;32.68;101228.91;294385;28;399148;-84
2022/04/19 09:18:29;;;;;;;9.82;6.43;;;26.80;25.40;;;20.77;32.96;101227.72;627400;27;120989;-79
2022/04/19 09:18:37;;;;;;;9.83;7.37;;;26.90;25.50;;;20.72;33.20;101219.31;210291;28;1330;-78
2022/04/19 09:18:44;;;;;;;9.15;7.40;;;26.90;25.50;;;20.70;33.37;101226.56;209547;28;830;-81
2022/04/19 09:18:50;;;;;;;9.80;7.28;;;26.90;25.60;;;20.69;33.40;101224.84;207899;28;843;-80
2022/04/19 09:18:57;;;;;;;9.77;7.30;;;26.90;25.60;;;20.68;33.72;101217.84;207802;28;1416;-79
2022/04/19 09:19:12;;;;;;;9.90;7.30;;;26.90;25.70;;;20.69;33.84;101230.16;207082;28;950;-79
2022/04/19 09:19:28;;;;;;;9.60;7.30;;;26.90;25.80;;;20.78;33.55;101229.44;206194;28;804;-79
2022/04/19 09:19:37;;;;;;;10.03;7.40;;;27.00;25.70;;;20.82;33.58;101224.72;206121;28;1330;-80
2022/04/19 09:19:44;;;;;;;10.90;7.60;;;27.00;25.70;;;20.86;33.74;101225.31;208478;28;831;-80
2022/04/19 09:19:51;;;;;;;10.80;7.53;;;27.00;25.80;;;20.89;34.30;101233.03;208725;28;1272;-79
2022/04/19 09:20:27;;;;;;;10.52;7.40;;;27.10;26.00;;;21.17;34.25;101226.34;208675;28;1241;-80
2022/04/19 09:20:34;;;;;;;9.40;7.30;;;27.20;26.60;;;21.22;34.19;101220.66;204609;29;956;-81
2022/04/19 09:20:47;;;;;;;10.82;7.25;;;27.20;26.50;;;21.25;34.21;101225.72;204617;29;1273;-79
2022/04/19 09:20:56;;;;;;;10.23;7.40;;;27.30;26.40;;;21.33;34.44;101225.06;206163;28;768;-80
2022/04/19 09:21:07;;;;;;;10.38;7.25;;;27.30;26.60;;;21.41;34.43;101229.78;207928;28;1060;-78
2022/04/19 09:21:14;;;;;;;10.57;7.28;;;27.30;26.80;;;21.43;34.26;101226.00;208752;28;812;-79
2022/04/19 09:21:42;;;;;;;10.77;7.32;;;27.30;26.80;;;21.54;33.91;101221.59;208792;28;783;-78
2022/04/19 09:21:49;;;;;;;9.63;7.67;;;27.40;26.40;;;21.58;34.26;101220.38;170584;28;372187;-80
2022/04/19 09:21:58;;;;;;;9.07;7.28;;;27.50;26.40;;;21.61;34.42;101220.13;207863;28;1381;-80
2022/04/19 09:22:07;;;;;;;9.55;7.05;;;27.50;26.60;;;21.63;34.23;101225.31;208765;28;801;-80
2022/04/19 09:22:26;;;;;;;9.23;6.80;;;27.60;26.60;;;21.66;34.21;101231.19;206987;28;851;-79
2022/04/19 09:22:32;;;;;;;9.37;7.00;;;27.70;26.60;;;21.68;34.25;101231.06;208882;28;988;-80
2022/04/19 09:22:43;;;;;;;10.32;6.93;;;27.70;26.50;;;21.70;34.01;101223.81;207989;28;1018;-81
2022/04/19 09:23:08;;;;;;;10.27;7.05;;;27.70;26.40;;;21.66;34.07;101220.56;206152;28;1282;-79
2022/04/19 09:23:15;;;;;;;12.00;7.27;;;27.80;26.10;;;21.68;33.99;101228.41;206860;28;1472;-78
2022/04/19 09:23:25;;;;;;;11.23;7.10;;;27.80;26.20;;;21.69;34.28;101222.16;207090;28;938;-79
2022/04/19 09:23:35;;;;;;;11.52;6.93;;;27.90;26.20;;;21.70;34.10;101224.69;207838;28;1237;-79
2022/04/19 09:23:54;;;;;;;11.45;7.13;;;27.90;26.30;;;21.74;34.08;101219.97;207890;28;805;-80
2022/04/19 09:24:01;;;;;;;10.30;7.07;;;28.00;26.20;;;21.78;34.38;101225.84;207948;28;971;-78
2022/04/19 09:24:22;;;;;;;9.37;6.93;;;28.00;26.20;;;21.81;34.16;101221.13;207875;28;1079;-78
2022/04/19 09:24:29;;;;;;;9.93;6.63;;;28.10;26.20;;;21.84;34.00;101220.88;207883;28;910;-80
2022/04/19 09:24:36;;;;;;;9.95;6.65;;;28.20;26.00;;;21.86;33.81;101221.56;209389;28;1373;-76
2022/04/19 09:24:45;;;;;;;9.85;6.63;;;28.20;25.90;;;21.87;34.10;101220.59;209684;28;874;-80
2022/04/19 09:24:52;;;;;;;10.05;6.70;;;28.20;25.90;;;21.87;33.53;101225.91;207790;28;1412;-79
2022/04/19 09:25:16;;;;;;;9.13;6.60;;;28.30;25.70;;;21.79;33.45;101217.75;207094;28;907;-79
2022/04/19 09:25:25;;;;;;;8.40;6.60;;;28.30;25.40;;;21.80;33.32;101222.13;207883;28;974;-79
2022/04/19 09:25:38;;;;;;;8.95;6.63;;;28.40;25.30;;;21.79;33.33;101220.41;208677;28;752;-79
2022/04/19 09:25:53;;;;;;;9.07;6.55;;;28.30;25.30;;;21.83;33.83;101224.50;208539;28;787;-81
2022/04/19 09:26:13;;;;;;;10.00;6.60;;;28.50;25.40;;;21.86;34.13;101224.22;208700;28;893;-82
2022/04/19 09:26:19;;;;;;;14.10;6.67;;;28.50;25.60;;;21.85;34.11;101222.56;208713;28;784;-79
2022/04/19 09:26:44;;;;;;;13.93;6.55;;;28.60;25.60;;;21.92;34.18;101222.88;207947;28;879;-79
2022/04/19 09:26:59;;;;;;;6.35;5.55;;;28.60;25.70;;;21.94;34.11;101230.72;196800;28;196132;-79
2022/04/19 09:27:12;;;;;;;9.77;5.93;;;28.70;25.50;;;21.91;33.99;101223.00;191338;28;1954;-80
2022/04/19 09:27:32;;;;;;;10.40;5.90;;;28.70;25.40;;;21.93;33.74;101221.06;207082;28;1085;-80
2022/04/19 09:27:43;;;;;;;8.43;5.93;;;28.70;25.30;;;21.95;33.21;101221.75;207431;28;891;-80
2022/04/19 09:27:56;;;;;;;7.97;5.97;;;28.80;25.10;;;21.98;33.28;101224.16;208005;28;815;-82
2022/04/19 09:28:16;;;;;;;8.40;6.10;;;28.80;24.90;;;21.98;32.75;101221.50;206890;28;1017;-81
2022/04/19 09:28:26;;;;;;;9.77;6.30;;;28.80;24.60;;;21.93;32.40;101229.88;207065;28;830;-79
2022/04/19 09:28:34;;;;;;;10.05;6.20;;;28.80;24.20;;;21.92;32.50;101216.72;182704;28;11994;-82
2022/04/19 09:28:41;;;;;;;10.07;6.25;;;28.90;24.00;;;21.90;32.24;101223.97;196446;28;1090;-80
2022/04/19 09:29:27;;;;;;;9.88;6.28;;;28.90;24.00;;;21.80;32.40;101222.13;206079;28;1383;-83
2022/04/19 09:29:34;;;;;;;9.63;6.70;;;29.00;23.80;;;21.80;32.16;101223.91;206904;28;1406;-80
2022/04/19 09:29:41;;;;;;;9.18;6.57;;;29.00;23.90;;;21.82;32.36;101227.28;183502;28;10131;-81
2022/04/19 09:29:48;;;;;;;8.70;6.38;;;29.00;23.90;;;21.81;32.62;101221.13;203131;28;5833;-79
2022/04/19 09:30:01;;;;;;;8.00;6.30;;;29.00;23.90;;;21.80;32.32;101224.78;204166;28;5179;-79
2022/04/19 09:30:34;;;;;;;7.40;6.47;;;29.00;23.90;;;21.77;32.49;101222.38;206422;28;6213;-79
2022/04/19 09:30:49;;;;;;;7.30;6.30;;;29.10;23.80;;;21.76;32.76;101218.00;204365;28;5756;-79
2022/04/19 09:30:59;;;;;;;9.20;6.43;;;29.10;24.00;;;21.78;32.21;101221.41;206349;28;6536;-77
2022/04/19 09:31:12;;;;;;;9.45;6.57;;;29.10;23.60;;;21.76;31.84;101225.97;206637;28;5818;-80
2022/04/19 09:31:32;;;;;;;10.33;6.73;;;29.10;23.30;;;21.73;31.90;101226.22;205788;28;6179;-78
2022/04/19 09:31:41;;;;;;;11.53;6.20;;;29.10;23.30;;;21.66;32.14;101222.41;204010;28;6671;-79
2022/04/19 09:32:03;;;;;;;10.02;6.00;;;29.20;23.50;;;21.64;32.37;101224.31;205696;28;6032;-80
2022/04/19 09:32:13;;;;;;;9.83;6.60;;;29.20;23.60;;;21.67;32.51;101224.94;194299;28;6971;-77
2022/04/19 09:32:20;;;;;;;10.73;6.60;;;29.20;23.80;;;21.68;32.71;101223.09;204704;28;5831;-75
2022/04/19 09:32:26;;;;;;;11.07;6.60;;;29.20;23.70;;;21.72;32.82;101227.19;205456;28;5709;-77
2022/04/19 09:32:34;;;;;;;9.57;6.45;;;29.20;23.80;;;21.74;32.84;101220.81;206288;28;5813;-79
2022/04/19 09:32:41;;;;;;;9.40;6.50;;;29.20;23.90;;;21.79;32.88;101224.91;204948;28;5173;-80
2022/04/19 09:33:14;;;;;;;8.75;6.45;;;29.20;23.90;;;21.98;32.62;101218.84;205585;28;5928;-82
2022/04/19 09:33:23;;;;;;;9.33;6.70;;;29.30;23.90;;;22.05;32.86;101212.03;201614;28;6336;-80
2022/04/19 09:33:31;;;;;;;11.02;6.68;;;29.30;24.00;;;22.12;32.83;101215.88;204702;28;6546;-80
2022/04/19 09:33:37;;;;;;;10.45;6.63;;;29.30;24.20;;;22.17;32.78;101209.31;204084;28;5227;-80
2022/04/19 09:33:58;;;;;;;10.40;6.57;;;29.30;24.20;;;22.24;32.68;101215.78;204823;28;5681;-81
2022/04/19 09:34:21;;;;;;;8.27;6.07;;;29.30;24.20;;;22.41;31.13;101213.47;202084;28;5911;-80
2022/04/19 09:34:34;;;;;;;8.37;6.10;;;29.40;23.00;;;22.26;31.25;101221.78;202519;28;6249;-76
2022/04/19 09:34:48;;;;;;;9.40;6.27;;;29.40;23.10;;;22.16;31.64;101220.88;203511;28;5786;-78
2022/04/19 09:34:55;;;;;;;9.53;6.57;;;29.40;23.20;;;22.15;31.85;101221.88;203154;28;5824;-78
2022/04/19 09:35:02;;;;;;;9.10;6.65;;;29.50;23.40;;;22.14;32.23;101215.72;205893;28;5147;-78
2022/04/19 09:35:12;;;;;;;8.45;6.63;;;29.50;23.50;;;22.15;32.22;101214.75;205397;28;5400;-76
2022/04/19 09:35:32;;;;;;;8.27;6.43;;;29.50;23.60;;;22.17;32.18;101214.63;205614;28;5781;-77
2022/04/19 09:35:56;;;;;;;8.80;5.97;;;29.50;23.50;;;22.13;31.76;101217.53;204090;28;7340;-78
2022/04/19 09:36:04;;;;;;;10.07;6.20;;;29.50;23.30;;;22.10;32.02;101215.13;203347;28;5731;-76
2022/04/19 09:36:11;;;;;;;9.75;6.22;;;29.60;23.20;;;22.10;31.87;101214.31;198172;28;5374;-77
2022/04/19 09:36:26;;;;;;;8.17;6.20;;;29.60;23.30;;;22.10;31.75;101209.81;205960;28;5096;-78
2022/04/19 09:36:33;;;;;;;9.33;6.10;;;29.60;23.20;;;22.09;31.96;101213.47;194152;28;5789;-78
2022/04/19 09:36:43;;;;;;;9.55;5.97;;;29.60;23.30;;;22.12;32.00;101215.88;205917;28;5347;-77
2022/04/19 09:37:07;;;;;;;10.43;6.00;;;29.60;23.30;;;22.17;31.78;101218.09;200427;28;5822;-77
2022/04/19 09:37:13;;;;;;;9.63;5.80;;;29.60;23.20;;;22.25;31.91;101218.28;202312;28;6961;-77
2022/04/19 09:37:22;;;;;;;9.60;5.73;;;29.60;23.20;;;22.27;31.66;101218.16;204300;28;5146;-77
2022/04/19 09:37:29;;;;;;;9.55;5.90;;;29.70;23.10;;;22.27;31.57;101215.50;203804;28;5568;-78
2022/04/19 09:37:36;;;;;;;9.60;6.22;;;29.70;23.10;;;22.22;31.82;101217.72;204122;28;5457;-76
2022/04/19 09:37:48;;;;;;;9.00;6.30;;;29.70;23.20;;;22.24;31.88;101215.78;204244;28;5955;-78
2022/04/19 09:37:55;;;;;;;8.70;6.45;;;29.70;23.20;;;22.24;32.18;101216.59;204649;28;5978;-77
2022/04/19 09:38:08;;;;;;;7.68;6.22;;;29.80;23.30;;;22.26;31.97;101213.81;205993;28;5147;-78
2022/04/19 09:38:17;;;;;;;8.60;6.10;;;29.80;23.30;;;22.29;32.04;101210.91;205820;28;5725;-77
2022/04/19 09:38:47;;;;;;;9.07;6.03;;;29.80;23.30;;;22.27;31.66;101214.66;206502;28;5939;-79
2022/04/19 09:38:54;;;;;;;8.87;6.37;;;29.80;23.10;;;22.27;31.65;101210.16;206802;28;6099;-78
2022/04/19 09:39:22;;;;;;;8.35;6.47;;;29.80;23.00;;;22.23;31.50;101206.94;205321;28;954;-77
2022/04/19 09:39:29;;;;;;;9.57;6.67;;;29.80;23.00;;;22.26;31.39;101213.81;206867;28;1641;-77
2022/04/19 09:39:38;;;;;;;9.48;6.45;;;29.80;22.60;;;22.27;30.78;101210.16;205449;28;832;-79
2022/04/19 09:39:44;;;;;;;9.38;6.45;;;29.80;22.50;;;22.24;30.99;101211.28;205551;28;836;-79
2022/04/19 09:39:53;;;;;;;9.07;6.60;;;29.80;22.40;;;22.24;30.94;101211.28;207126;28;1061;-77
2022/04/19 09:39:59;;;;;;;8.63;6.57;;;29.80;22.30;;;22.20;30.77;101214.38;207815;28;1006;-77
2022/04/19 09:40:13;;;;;;;8.87;6.63;;;29.90;22.30;;;22.11;31.03;101214.16;207917;28;994;-79
2022/04/19 09:40:44;;;;;;;8.70;6.23;;;29.90;22.40;;;22.11;31.25;101214.16;206865;28;1299;-78
2022/04/19 09:40:53;;;;;;;10.40;6.50;;;29.90;22.50;;;22.16;31.82;101212.91;207793;28;729;-77
2022/04/19 09:41:00;;;;;;;9.60;6.43;;;29.80;22.80;;;22.17;31.97;101215.44;207872;28;895;-78
2022/04/19 09:41:11;;;;;;;10.93;6.38;;;29.90;23.00;;;22.18;31.90;101208.31;207955;28;1037;-78
2022/04/19 09:41:31;;;;;;;10.40;6.18;;;29.90;23.00;;;22.23;32.01;101214.06;206999;28;758;-77
2022/04/19 09:41:40;;;;;;;9.40;6.50;;;29.90;23.00;;;22.26;32.11;101213.81;206996;28;1017;-79
2022/04/19 09:42:01;;;;;;;9.85;6.47;;;29.90;23.10;;;22.29;31.75;101208.22;206926;28;1157;-77
2022/04/19 09:42:14;;;;;;;8.07;6.50;;;29.90;23.10;;;22.30;31.90;101214.41;206218;28;737;-79
2022/04/19 09:42:25;;;;;;;7.50;6.10;;;30.00;23.00;;;22.32;32.24;101210.63;206298;28;867;-79
2022/04/19 09:42:33;;;;;;;7.90;6.10;;;30.00;23.10;;;22.38;32.10;101218.06;207139;28;1038;-78
2022/04/19 09:42:42;;;;;;;8.32;6.07;;;30.00;23.30;;;22.44;32.01;101222.00;206869;28;903;-81
2022/04/19 09:42:54;;;;;;;9.23;6.22;;;30.00;23.20;;;22.45;31.67;101217.53;207015;28;1038;-81
2022/04/19 09:43:16;;;;;;;9.60;6.20;;;30.00;22.90;;;22.45;31.63;101218.38;207348;28;906;-80
2022/04/19 09:43:24;;;;;;;9.67;6.47;;;30.00;22.90;;;22.44;31.83;101222.00;208759;28;906;-78
2022/04/19 09:43:32;;;;;;;9.68;6.45;;;30.10;23.00;;;22.45;31.85;101214.88;207139;28;634;-77
2022/04/19 09:43:38;;;;;;;9.77;6.50;;;30.10;23.00;;;22.43;31.50;101216.81;207899;28;847;-78
2022/04/19 09:44:12;;;;;;;8.53;6.37;;;30.10;22.80;;;22.40;30.68;101219.75;207895;28;871;-80
2022/04/19 09:44:19;;;;;;;8.45;6.25;;;30.20;22.20;;;22.37;30.86;101216.38;207944;28;915;-79
2022/04/19 09:44:26;;;;;;;9.20;6.47;;;30.10;22.30;;;22.34;30.64;101213.97;207871;28;969;-77
2022/04/19 09:44:39;;;;;;;11.00;6.38;;;30.20;22.30;;;22.33;30.98;101207.00;207093;28;823;-78
2022/04/19 09:44:57;;;;;;;10.33;6.30;;;30.10;22.30;;;22.36;31.00;101212.03;207122;28;1476;-78
2022/04/19 09:45:04;;;;;;;7.83;6.13;;;30.10;22.30;;;22.35;30.95;101213.00;207811;28;910;-79
2022/04/19 09:45:11;;;;;;;8.10;6.28;;;30.10;22.30;;;22.36;31.20;101213.84;207920;28;908;-78
2022/04/19 09:45:17;;;;;;;8.15;6.35;;;30.20;22.40;;;22.35;31.19;101218.31;207869;28;898;-79
2022/04/19 09:45:28;;;;;;;7.97;6.30;;;30.10;22.50;;;22.40;31.61;101214.44;207972;28;816;-81
2022/04/19 09:45:52;;;;;;;7.82;6.38;;;30.10;22.60;;;22.45;31.44;101220.19;207057;28;1327;-76
2022/04/19 09:46:07;;;;;;;8.10;6.30;;;30.20;22.80;;;22.46;31.32;101216.53;207923;28;862;-80
2022/04/19 09:46:15;;;;;;;7.83;6.30;;;30.20;22.50;;;22.44;31.24;101213.19;206285;28;994;-78
2022/04/19 09:46:21;;;;;;;7.95;6.25;;;30.20;22.60;;;22.43;31.28;101211.50;207033;28;848;-77
2022/04/19 09:46:28;;;;;;;8.17;6.20;;;30.20;22.50;;;22.43;31.35;101208.84;207082;28;887;-77
2022/04/19 09:46:38;;;;;;;7.38;5.90;;;30.30;22.50;;;22.45;31.31;101212.22;207065;28;867;-78
2022/04/19 09:47:14;;;;;;;7.97;6.00;;;30.20;22.50;;;22.43;30.70;101208.84;207864;28;990;-79
2022/04/19 09:47:22;;;;;;;7.23;6.00;;;30.30;22.10;;;22.45;30.84;101212.22;208729;28;894;-78
2022/04/19 09:47:28;;;;;;;7.88;5.95;;;30.30;22.10;;;22.48;30.52;101211.94;208678;28;854;-79
2022/04/19 09:47:51;;;;;;;8.93;5.90;;;30.30;21.80;;;22.35;30.50;101213.00;208814;28;827;-78
2022/04/19 09:47:58;;;;;;;8.03;5.80;;;30.30;21.70;;;22.33;30.62;101211.47;207785;28;883;-78
2022/04/19 09:48:05;;;;;;;7.72;6.03;;;30.30;21.80;;;22.32;30.69;101212.44;206401;28;832;-78
2022/04/19 09:48:19;;;;;;;8.40;5.90;;;30.30;21.80;;;22.30;30.73;101214.41;205088;28;983;-78
2022/04/19 09:48:44;;;;;;;9.30;5.80;;;30.30;21.70;;;22.24;31.04;101205.97;205503;28;950;-77
2022/04/19 09:48:51;;;;;;;9.60;6.00;;;30.30;21.80;;;22.27;31.67;101210.16;206019;28;1534;-78
2022/04/19 09:48:58;;;;;;;8.43;6.00;;;30.30;22.40;;;22.29;31.72;101213.56;206163;28;864;-80
2022/04/19 09:49:11;;;;;;;7.97;5.97;;;30.40;22.50;;;22.33;31.52;101204.34;207142;28;800;-80
2022/04/19 09:49:49;;;;;;;7.53;5.73;;;30.40;22.50;;;22.45;31.49;101212.22;206193;28;897;-77
2022/04/19 09:49:58;;;;;;;6.93;5.87;;;30.40;22.60;;;22.51;31.83;101209.00;207500;28;1574;-77
2022/04/19 09:50:12;;;;;;;7.43;5.70;;;30.50;22.60;;;22.56;31.70;101200.66;208730;28;902;-79
2022/04/19 09:50:19;;;;;;;8.60;5.50;;;30.40;22.80;;;22.58;31.59;101207.50;208705;28;1003;-79
2022/04/19 09:50:28;;;;;;;8.60;5.57;;;30.40;22.70;;;22.60;31.68;101204.72;207660;28;2625;-80
2022/04/19 09:50:35;;;;;;;8.02;5.50;;;30.50;22.70;;;22.63;31.72;101217.75;208725;28;962;-79
2022/04/19 09:51:03;;;;;;;7.70;5.50;;;30.50;22.70;;;22.68;31.69;101198.75;207715;28;2640;-79
2022/04/19 09:51:13;;;;;;;7.53;5.70;;;30.40;22.70;;;22.79;31.47;101208.41;207810;28;890;-78
2022/04/19 09:51:34;;;;;;;8.15;5.90;;;30.50;22.50;;;22.85;31.52;101205.22;206829;28;2554;-79
2022/04/19 09:51:43;;;;;;;8.10;5.80;;;30.60;22.60;;;22.88;31.37;101203.09;206879;28;2696;-78
2022/04/19 09:51:50;;;;;;;7.97;5.75;;;30.60;22.60;;;22.90;31.37;101206.47;207058;28;836;-78
2022/04/19 09:51:57;;;;;;;8.00;5.72;;;30.60;22.60;;;22.90;31.24;101206.47;206250;28;1176;-77
2022/04/19 09:52:04;;;;;;;8.18;5.82;;;30.60;22.60;;;22.90;31.42;101205.63;206914;28;2607;-78
2022/04/19 09:52:23;;;;;;;8.18;6.05;;;30.70;22.60;;;22.89;31.40;101206.63;207115;28;851;-78
2022/04/19 09:52:30;;;;;;;9.50;6.23;;;30.70;22.50;;;22.92;31.28;101210.81;207045;28;1018;-77
2022/04/19 09:52:43;;;;;;;9.48;6.25;;;30.70;22.60;;;22.93;31.23;101205.38;207150;28;954;-77
2022/04/19 09:52:51;;;;;;;8.03;5.83;;;30.70;22.50;;;22.98;31.11;101203.13;206133;28;923;-77
2022/04/19 09:52:58;;;;;;;7.72;5.72;;;30.70;22.50;;;23.02;31.47;101206.34;206872;28;852;-78
2022/04/19 09:53:08;;;;;;;7.72;5.68;;;30.80;22.60;;;23.09;31.30;101214.63;207030;28;1000;-78
2022/04/19 09:53:26;;;;;;;7.75;5.78;;;30.80;22.70;;;23.13;31.24;101211.53;207117;28;910;-78
2022/04/19 09:53:47;;;;;;;7.43;5.80;;;30.80;22.60;;;23.20;31.19;101208.31;206176;28;1488;-77
2022/04/19 09:53:54;;;;;;;8.13;5.87;;;30.80;22.50;;;23.24;31.21;101209.72;204613;29;910;-76